createdAt,value
2023-04-09T00:00:19.351Z,97613.59
2023-04-09T00:03:09.142Z,97622.88
2023-04-09T00:05:57.550Z,97617.81
2023-04-09T00:08:45.941Z,97611.59
2023-04-09T00:11:34.326Z,97617.06
2023-04-09T00:14:22.660Z,97613.34
2023-04-09T00:17:11.164Z,97618.19
2023-04-09T00:20:00.915Z,97613.41
2023-04-09T00:22:49.821Z,97614.44
2023-04-09T00:25:38.252Z,97602.94
2023-04-09T00:28:26.658Z,97602.31
2023-04-09T00:31:15.027Z,97601.31
2023-04-09T00:34:03.679Z,97601.13
2023-04-09T00:36:53.396Z,97604.66
2023-04-09T00:39:41.778Z,97606.91
2023-04-09T00:42:33.004Z,97602.59
2023-04-09T00:45:21.411Z,97607.78
2023-04-09T00:48:09.807Z,97598.69
2023-04-09T00:50:58.237Z,97594.50
2023-04-09T00:53:48.046Z,97598.69
2023-04-09T00:56:37.411Z,97600.22
2023-04-09T00:59:26.442Z,97599.53
2023-04-09T01:02:15.163Z,97592.41
2023-04-09T01:05:03.776Z,97596.69
2023-04-09T01:08:09.615Z,97596.59
2023-04-09T01:11:07.143Z,97592.41
2023-04-09T01:14:02.893Z,97587.38
2023-04-09T01:16:54.577Z,97589.81
2023-04-09T01:19:46.716Z,97586.09
2023-04-09T01:22:43.616Z,97579.75
2023-04-09T01:25:45.119Z,97578.00
2023-04-09T01:28:38.655Z,97583.63
2023-04-09T01:31:30.162Z,97588.72
2023-04-09T01:34:19.807Z,97597.56
2023-04-09T01:37:08.750Z,97600.19
2023-04-09T01:39:57.203Z,97604.06
2023-04-09T01:42:47.031Z,97614.84
2023-04-09T01:45:37.393Z,97610.13
2023-04-09T01:48:25.770Z,97608.00
2023-04-09T01:51:14.717Z,97609.63
2023-04-09T01:54:03.356Z,97607.94
2023-04-09T01:56:51.761Z,97596.78
2023-04-09T01:59:40.191Z,97602.25
2023-04-09T02:02:37.008Z,97611.94
2023-04-09T02:05:28.149Z,97619.75
2023-04-09T02:08:21.230Z,97621.44
2023-04-09T02:11:11.304Z,97617.19
2023-04-09T02:13:59.809Z,97622.03
2023-04-09T02:16:48.267Z,97616.69
2023-04-09T02:19:41.885Z,97611.34
2023-04-09T02:22:30.322Z,97614.13
2023-04-09T02:25:18.647Z,97617.69
2023-04-09T02:28:07.050Z,97612.88
2023-04-09T02:30:55.464Z,97611.31
2023-04-09T02:33:43.967Z,97619.31
2023-04-09T02:36:33.651Z,97621.47
2023-04-09T02:39:22.019Z,97616.22
2023-04-09T02:42:10.696Z,97614.59
2023-04-09T02:44:59.092Z,97615.41
2023-04-09T02:47:48.977Z,97623.16
2023-04-09T02:50:37.484Z,97622.81
2023-04-09T02:53:27.417Z,97621.53
2023-04-09T02:56:15.844Z,97614.34
2023-04-09T02:59:04.172Z,97613.84
2023-04-09T03:01:52.631Z,97614.28
2023-04-09T03:04:41.125Z,97610.38
2023-04-09T03:07:29.477Z,97610.31
2023-04-09T03:10:19.327Z,97619.19
2023-04-09T03:13:07.759Z,97612.16
2023-04-09T03:15:56.121Z,97617.09
2023-04-09T03:18:44.513Z,97616.03
2023-04-09T03:21:33.209Z,97609.75
2023-04-09T03:24:21.702Z,97609.81
2023-04-09T03:27:12.073Z,97608.41
2023-04-09T03:30:00.760Z,97611.19
2023-04-09T03:32:56.983Z,97605.22
2023-04-09T03:35:45.792Z,97607.56
2023-04-09T03:38:37.082Z,97603.31
2023-04-09T03:41:31.460Z,97595.03
2023-04-09T03:44:25.075Z,97604.41
2023-04-09T03:47:24.170Z,97607.66
2023-04-09T03:50:13.572Z,97603.44
2023-04-09T03:53:08.435Z,97600.28
2023-04-09T03:55:58.443Z,97610.44
2023-04-09T03:58:48.500Z,97619.00
2023-04-09T04:01:42.657Z,97621.97
2023-04-09T04:04:31.429Z,97620.28
2023-04-09T04:07:20.602Z,97621.91
2023-04-09T04:10:14.051Z,97621.44
2023-04-09T04:13:08.356Z,97620.13
2023-04-09T04:16:08.665Z,97627.88
2023-04-09T04:19:00.447Z,97627.78
2023-04-09T04:21:50.253Z,97634.25
2023-04-09T04:24:38.802Z,97636.09
2023-04-09T04:27:27.638Z,97637.41
2023-04-09T04:30:16.280Z,97638.38
2023-04-09T04:33:23.852Z,97641.72
2023-04-09T04:36:16.539Z,97637.72
2023-04-09T04:39:09.211Z,97639.72
2023-04-09T04:42:40.871Z,97642.84
2023-04-09T04:45:33.653Z,97627.84
2023-04-09T04:48:28.195Z,97625.38
2023-04-09T04:51:17.915Z,97629.25
2023-04-09T04:54:17.985Z,97633.41
2023-04-09T04:57:13.012Z,97635.53
2023-04-09T05:00:02.618Z,97630.84
2023-04-09T05:02:51.456Z,97630.38
2023-04-09T05:05:43.908Z,97633.63
2023-04-09T05:08:33.615Z,97636.34
2023-04-09T05:11:22.750Z,97635.53
2023-04-09T05:14:13.105Z,97638.56
2023-04-09T05:17:01.771Z,97643.19
2023-04-09T05:20:01.213Z,97642.00
2023-04-09T05:22:58.954Z,97642.50
2023-04-09T05:25:54.183Z,97648.75
2023-04-09T05:28:54.459Z,97651.88
2023-04-09T05:31:44.702Z,97649.88
2023-04-09T05:34:42.507Z,97654.03
2023-04-09T05:37:30.981Z,97654.47
2023-04-09T05:40:19.538Z,97656.88
2023-04-09T05:43:09.782Z,97659.16
2023-04-09T05:46:04.286Z,97663.06
2023-04-09T05:48:53.025Z,97656.31
2023-04-09T05:51:43.270Z,97662.75
2023-04-09T05:54:32.732Z,97651.75
2023-04-09T05:57:21.155Z,97660.84
2023-04-09T06:00:18.906Z,97665.22
2023-04-09T06:03:10.204Z,97662.81
2023-04-09T06:05:59.697Z,97664.19
2023-04-09T06:08:49.217Z,97659.25
2023-04-09T06:11:37.624Z,97657.66
2023-04-09T06:14:26.024Z,97666.38
2023-04-09T06:17:15.799Z,97671.56
2023-04-09T06:20:04.445Z,97663.16
2023-04-09T06:22:52.995Z,97660.47
2023-04-09T06:25:41.674Z,97664.88
2023-04-09T06:28:31.533Z,97665.13
2023-04-09T06:31:22.325Z,97664.13
2023-04-09T06:34:12.115Z,97672.16
2023-04-09T06:37:00.441Z,97671.88
2023-04-09T06:40:00.660Z,97677.00
2023-04-09T06:42:49.825Z,97675.41
2023-04-09T06:45:43.853Z,97682.38
2023-04-09T06:48:32.350Z,97679.09
2023-04-09T06:51:22.058Z,97671.81
2023-04-09T06:54:10.390Z,97661.34
2023-04-09T06:56:58.702Z,97663.34
2023-04-09T06:59:47.097Z,97655.84
2023-04-09T07:02:35.823Z,97663.63
2023-04-09T07:05:24.258Z,97669.03
2023-04-09T07:08:13.980Z,97674.16
2023-04-09T07:11:03.369Z,97685.63
2023-04-09T07:13:52.092Z,97683.69
2023-04-09T07:16:40.723Z,97689.19
2023-04-09T07:19:29.124Z,97691.59
2023-04-09T07:22:17.488Z,97682.63
2023-04-09T07:25:08.621Z,97684.97
2023-04-09T07:27:57.227Z,97686.66
2023-04-09T07:30:46.308Z,97698.63
2023-04-09T07:33:34.777Z,97707.53
2023-04-09T07:36:23.407Z,97702.00
2023-04-09T07:39:12.864Z,97713.00
2023-04-09T07:42:05.005Z,97709.34
2023-04-09T07:44:53.744Z,97712.72
2023-04-09T07:47:42.207Z,97703.56
2023-04-09T07:50:31.165Z,97702.34
2023-04-09T07:53:19.496Z,97706.75
2023-04-09T07:56:08.549Z,97703.66
2023-04-09T07:58:58.336Z,97707.81
2023-04-09T08:01:46.824Z,97707.34
2023-04-09T08:04:35.497Z,97707.63
2023-04-09T08:07:23.946Z,97701.16
2023-04-09T08:10:15.242Z,97706.72
2023-04-09T08:13:03.653Z,97703.63
2023-04-09T08:15:53.588Z,97699.94
2023-04-09T08:18:41.935Z,97715.94
2023-04-09T08:21:30.246Z,97714.28
2023-04-09T08:24:18.720Z,97710.94
2023-04-09T08:27:07.341Z,97708.91
2023-04-09T08:29:55.686Z,97717.16
2023-04-09T08:32:45.644Z,97714.81
2023-04-09T08:35:34.277Z,97720.75
2023-04-09T08:38:22.604Z,97714.91
2023-04-09T08:41:18.767Z,97710.72
2023-04-09T08:44:07.261Z,97709.50
2023-04-09T08:46:57.623Z,97718.19
2023-04-09T08:49:50.293Z,97720.38
2023-04-09T08:52:39.444Z,97722.31
2023-04-09T08:55:27.799Z,97722.84
2023-04-09T08:58:16.137Z,97721.72
2023-04-09T09:01:04.541Z,97726.13
2023-04-09T09:03:58.344Z,97733.06
2023-04-09T09:06:48.077Z,97721.06
2023-04-09T09:09:51.739Z,97720.06
2023-04-09T09:12:41.835Z,97728.31
2023-04-09T09:15:31.019Z,97728.91
2023-04-09T09:18:20.162Z,97723.06
2023-04-09T09:21:12.508Z,97732.72
2023-04-09T09:24:02.186Z,97735.41
2023-04-09T09:26:50.649Z,97727.38
2023-04-09T09:29:42.551Z,97722.03
2023-04-09T09:32:31.021Z,97720.13
2023-04-09T09:35:19.477Z,97715.09
2023-04-09T09:38:07.902Z,97715.59
2023-04-09T09:40:57.655Z,97717.47
2023-04-09T09:43:46.251Z,97716.16
2023-04-09T09:46:36.396Z,97723.66
2023-04-09T09:49:24.791Z,97720.44
2023-04-09T09:52:13.132Z,97721.78
2023-04-09T09:55:04.300Z,97720.72
2023-04-09T09:57:54.324Z,97724.75
2023-04-09T10:00:42.974Z,97716.69
2023-04-09T10:03:33.075Z,97717.25
2023-04-09T10:06:21.592Z,97729.59
2023-04-09T10:09:10.351Z,97723.69
2023-04-09T10:11:59.409Z,97722.88
2023-04-09T10:14:49.144Z,97718.88
2023-04-09T10:17:38.913Z,97720.75
2023-04-09T10:20:30.229Z,97716.44
2023-04-09T10:23:26.214Z,97716.72
2023-04-09T10:26:14.607Z,97706.00
2023-04-09T10:29:08.250Z,97715.13
2023-04-09T10:32:06.893Z,97713.50
2023-04-09T10:34:59.431Z,97712.41
2023-04-09T10:37:50.737Z,97707.34
2023-04-09T10:40:42.899Z,97699.78
2023-04-09T10:43:31.623Z,97712.41
2023-04-09T10:46:30.540Z,97709.19
2023-04-09T10:49:22.269Z,97706.22
2023-04-09T10:52:13.775Z,97701.09
2023-04-09T10:55:02.206Z,97699.50
2023-04-09T10:57:50.640Z,97707.75
2023-04-09T11:00:41.516Z,97697.28
2023-04-09T11:03:31.508Z,97700.47
2023-04-09T11:06:21.745Z,97701.06
2023-04-09T11:09:10.036Z,97700.53
2023-04-09T11:11:58.394Z,97698.34
2023-04-09T11:14:46.716Z,97701.03
2023-04-09T11:17:37.421Z,97698.09
2023-04-09T11:20:26.899Z,97700.75
2023-04-09T11:23:18.966Z,97699.72
2023-04-09T11:26:08.013Z,97704.81
2023-04-09T11:28:58.275Z,97704.31
2023-04-09T11:31:46.763Z,97699.75
2023-04-09T11:34:35.161Z,97702.19
2023-04-09T11:37:23.464Z,97702.69
2023-04-09T11:40:18.196Z,97699.28
2023-04-09T11:43:09.324Z,97700.34
2023-04-09T11:45:57.809Z,97696.31
2023-04-09T11:48:46.730Z,97689.88
2023-04-09T11:51:35.624Z,97694.66
2023-04-09T11:54:23.942Z,97691.69
2023-04-09T11:57:13.672Z,97690.59
2023-04-09T12:00:07.400Z,97689.25
2023-04-09T12:03:03.665Z,97695.91
2023-04-09T12:05:52.406Z,97694.28
2023-04-09T12:08:40.917Z,97691.84
2023-04-09T12:11:30.228Z,97695.09
2023-04-09T12:14:21.538Z,97704.78
2023-04-09T12:17:09.887Z,97692.91
2023-04-09T12:19:58.267Z,97696.09
2023-04-09T12:22:46.624Z,97702.50
2023-04-09T12:25:37.319Z,97711.69
2023-04-09T12:28:25.883Z,97698.75
2023-04-09T12:31:15.577Z,97701.41
2023-04-09T12:34:04.090Z,97699.44
2023-04-09T12:36:52.449Z,97700.78
2023-04-09T12:39:41.016Z,97696.59
2023-04-09T12:42:29.407Z,97700.72
2023-04-09T12:45:19.342Z,97695.91
2023-04-09T12:48:09.074Z,97702.66
2023-04-09T12:50:57.483Z,97700.16
2023-04-09T12:53:46.236Z,97692.31
2023-04-09T12:56:35.338Z,97695.00
2023-04-09T12:59:23.734Z,97695.41
2023-04-09T13:02:12.781Z,97687.03
2023-04-09T13:05:02.825Z,97688.44
2023-04-09T13:07:51.462Z,97679.56
2023-04-09T13:10:40.085Z,97682.00
2023-04-09T13:13:28.762Z,97677.34
2023-04-09T13:16:17.615Z,97673.91
2023-04-09T13:19:07.848Z,97682.69
2023-04-09T13:21:57.565Z,97681.44
2023-04-09T13:24:46.012Z,97687.00
2023-04-09T13:27:34.396Z,97676.06
2023-04-09T13:30:22.954Z,97671.47
2023-04-09T13:33:11.603Z,97675.78
2023-04-09T13:36:00.203Z,97666.38
2023-04-09T13:38:50.207Z,97667.69
2023-04-09T13:41:38.622Z,97654.97
2023-04-09T13:44:27.484Z,97661.38
2023-04-09T13:47:21.515Z,97657.63
2023-04-09T13:50:13.172Z,97657.22
2023-04-09T13:53:05.580Z,97663.34
2023-04-09T13:55:55.587Z,97660.53
2023-04-09T13:58:44.027Z,97652.75
2023-04-09T14:01:32.568Z,97659.19
2023-04-09T14:04:21.812Z,97648.00
2023-04-09T14:07:10.180Z,97653.84
2023-04-09T14:09:58.544Z,97644.38
2023-04-09T14:12:48.251Z,97639.50
2023-04-09T14:15:36.710Z,97640.47
2023-04-09T14:18:25.151Z,97634.91
2023-04-09T14:21:13.948Z,97640.53
2023-04-09T14:24:02.402Z,97638.28
2023-04-09T14:26:53.492Z,97645.84
2023-04-09T14:29:43.611Z,97636.97
2023-04-09T14:32:32.074Z,97630.16
2023-04-09T14:35:20.568Z,97631.16
2023-04-09T14:38:09.947Z,97627.47
2023-04-09T14:40:58.325Z,97629.50
2023-04-09T14:43:46.683Z,97626.63
2023-04-09T14:46:37.736Z,97624.13
2023-04-09T14:49:26.260Z,97634.00
2023-04-09T14:52:14.590Z,97632.25
2023-04-09T14:55:02.959Z,97629.84
2023-04-09T14:57:51.395Z,97637.91
2023-04-09T15:00:39.810Z,97637.13
2023-04-09T15:03:30.125Z,97641.16
2023-04-09T15:06:18.618Z,97639.63
2023-04-09T15:09:07.055Z,97636.97
2023-04-09T15:11:56.070Z,97629.31
2023-04-09T15:14:44.454Z,97628.63
2023-04-09T15:17:32.831Z,97625.03
2023-04-09T15:20:22.587Z,97622.97
2023-04-09T15:23:11.115Z,97623.97
2023-04-09T15:25:59.537Z,97611.22
2023-04-09T15:28:47.883Z,97611.88
2023-04-09T15:31:36.327Z,97609.44
2023-04-09T15:34:25.805Z,97606.53
2023-04-09T15:37:15.662Z,97609.53
2023-04-09T15:40:05.154Z,97613.91
2023-04-09T15:42:53.532Z,97610.75
2023-04-09T15:45:42.167Z,97620.44
2023-04-09T15:48:30.539Z,97612.78
2023-04-09T15:51:19.143Z,97611.41
2023-04-09T15:54:08.986Z,97610.91
2023-04-09T15:56:57.312Z,97610.38
2023-04-09T15:59:45.716Z,97619.66
2023-04-09T16:02:34.088Z,97601.31
2023-04-09T16:05:22.614Z,97609.66
2023-04-09T16:08:11.740Z,97605.94
2023-04-09T16:11:01.513Z,97598.53
2023-04-09T16:13:49.873Z,97606.59
2023-04-09T16:16:38.780Z,97601.13
2023-04-09T16:19:28.592Z,97606.41
2023-04-09T16:22:17.661Z,97594.78
2023-04-09T16:25:06.792Z,97594.72
2023-04-09T16:27:56.499Z,97601.78
2023-04-09T16:30:45.375Z,97603.56
2023-04-09T16:33:33.780Z,97597.19
2023-04-09T16:36:22.346Z,97611.56
2023-04-09T16:39:10.970Z,97608.38
2023-04-09T16:41:59.318Z,97610.28
2023-04-09T16:44:49.017Z,97611.66
2023-04-09T16:47:37.434Z,97605.56
2023-04-09T16:50:26.175Z,97610.53
2023-04-09T16:53:14.600Z,97603.31
2023-04-09T16:56:02.952Z,97617.81
2023-04-09T16:58:51.622Z,97610.69
2023-04-09T17:01:41.601Z,97605.06
2023-04-09T17:04:30.122Z,97611.06
2023-04-09T17:07:18.598Z,97607.03
2023-04-09T17:10:08.347Z,97611.53
2023-04-09T17:12:56.748Z,97619.75
2023-04-09T17:15:45.195Z,97629.59
2023-04-09T17:18:34.979Z,97622.22
2023-04-09T17:21:23.368Z,97629.81
2023-04-09T17:24:11.713Z,97630.91
2023-04-09T17:27:00.040Z,97625.03
2023-04-09T17:29:48.494Z,97625.00
2023-04-09T17:32:36.960Z,97624.88
2023-04-09T17:35:26.849Z,97622.97
2023-04-09T17:38:21.084Z,97630.75
2023-04-09T17:41:09.415Z,97627.38
2023-04-09T17:43:58.173Z,97627.56
2023-04-09T17:46:46.890Z,97628.81
2023-04-09T17:49:35.571Z,97635.31
2023-04-09T17:52:25.328Z,97635.09
2023-04-09T17:55:14.054Z,97637.16
2023-04-09T17:58:03.160Z,97649.50
2023-04-09T18:00:53.901Z,97645.47
2023-04-09T18:03:43.270Z,97657.84
2023-04-09T18:06:31.929Z,97650.38
2023-04-09T18:09:21.967Z,97657.16
2023-04-09T18:12:10.898Z,97652.63
2023-04-09T18:14:59.234Z,97654.53
2023-04-09T18:17:47.677Z,97650.88
2023-04-09T18:20:36.180Z,97653.84
2023-04-09T18:23:24.519Z,97651.19
2023-04-09T18:26:14.334Z,97646.84
2023-04-09T18:29:02.746Z,97652.31
2023-04-09T18:31:51.210Z,97656.09
2023-04-09T18:34:39.632Z,97656.34
2023-04-09T18:37:27.992Z,97652.06
2023-04-09T18:40:17.884Z,97655.59
2023-04-09T18:43:07.683Z,97660.47
2023-04-09T18:45:56.249Z,97671.28
2023-04-09T18:48:47.068Z,97674.28
2023-04-09T18:51:35.629Z,97674.03
2023-04-09T18:54:24.740Z,97674.88
2023-04-09T18:57:13.165Z,97679.19
2023-04-09T19:00:03.903Z,97681.09
2023-04-09T19:02:52.476Z,97675.97
2023-04-09T19:05:41.029Z,97686.47
2023-04-09T19:08:32.365Z,97683.25
2023-04-09T19:11:20.710Z,97682.22
2023-04-09T19:14:09.635Z,97688.91
2023-04-09T19:16:59.860Z,97698.88
2023-04-09T19:19:48.457Z,97690.34
2023-04-09T19:22:36.848Z,97698.44
2023-04-09T19:25:25.312Z,97691.50
2023-04-09T19:28:13.677Z,97694.75
2023-04-09T19:31:03.562Z,97687.75
2023-04-09T19:33:53.578Z,97690.44
2023-04-09T19:36:44.329Z,97698.72
2023-04-09T19:39:32.765Z,97704.38
2023-04-09T19:42:21.141Z,97696.34
2023-04-09T19:45:10.410Z,97696.34
2023-04-09T19:47:58.902Z,97700.09
2023-04-09T19:50:48.998Z,97704.34
2023-04-09T19:53:37.866Z,97697.09
2023-04-09T19:56:26.223Z,97697.91
2023-04-09T19:59:14.609Z,97700.88
2023-04-09T20:02:03.120Z,97706.00
2023-04-09T20:04:52.428Z,97708.66
2023-04-09T20:07:43.454Z,97709.72
2023-04-09T20:10:31.849Z,97714.53
2023-04-09T20:13:20.239Z,97713.19
2023-04-09T20:16:08.649Z,97700.03
2023-04-09T20:18:57.033Z,97709.16
2023-04-09T20:21:45.402Z,97698.44
2023-04-09T20:24:35.413Z,97707.00
2023-04-09T20:27:23.839Z,97701.09
2023-04-09T20:30:12.731Z,97706.44
2023-04-09T20:33:01.386Z,97716.56
2023-04-09T20:35:50.461Z,97714.94
2023-04-09T20:38:38.886Z,97718.66
2023-04-09T20:41:28.667Z,97720.25
2023-04-09T20:44:17.315Z,97717.56
2023-04-09T20:47:07.181Z,97711.91
2023-04-09T20:49:59.676Z,97708.94
2023-04-09T20:52:49.589Z,97717.19
2023-04-09T20:55:38.768Z,97723.28
2023-04-09T20:58:28.510Z,97723.00
2023-04-09T21:01:16.891Z,97728.06
2023-04-09T21:04:05.300Z,97729.09
2023-04-09T21:06:53.762Z,97727.50
2023-04-09T21:09:42.068Z,97733.38
2023-04-09T21:12:32.681Z,97732.84
2023-04-09T21:15:22.420Z,97724.47
2023-04-09T21:18:10.837Z,97736.22
2023-04-09T21:20:59.168Z,97727.94
2023-04-09T21:23:47.527Z,97734.31
2023-04-09T21:26:49.245Z,97737.34
2023-04-09T21:29:39.023Z,97739.50
2023-04-09T21:32:28.848Z,97740.63
2023-04-09T21:35:17.285Z,97731.53
2023-04-09T21:38:06.002Z,97738.69
2023-04-09T21:40:54.385Z,97741.03
2023-04-09T21:43:42.739Z,97734.31
2023-04-09T21:46:31.130Z,97726.97
2023-04-09T21:49:20.918Z,97729.25
2023-04-09T21:52:14.363Z,97723.81
2023-04-09T21:55:03.369Z,97717.88
2023-04-09T21:57:53.626Z,97718.75
2023-04-09T22:00:42.970Z,97726.91
2023-04-09T22:03:31.559Z,97723.88
2023-04-09T22:06:21.543Z,97721.03
2023-04-09T22:09:10.198Z,97725.59
2023-04-09T22:11:59.514Z,97723.69
2023-04-09T22:14:47.934Z,97731.19
2023-04-09T22:17:36.352Z,97723.63
2023-04-09T22:20:26.355Z,97725.63
2023-04-09T22:23:16.108Z,97732.63
2023-04-09T22:26:04.555Z,97730.78
2023-04-09T22:28:53.328Z,97734.44
2023-04-09T22:31:42.138Z,97731.97
2023-04-09T22:34:30.626Z,97737.53
2023-04-09T22:37:19.790Z,97743.06
2023-04-09T22:40:14.388Z,97736.38
2023-04-09T22:43:02.730Z,97744.63
2023-04-09T22:45:52.334Z,97743.00
2023-04-09T22:48:55.535Z,97742.75
2023-04-09T22:51:43.974Z,97742.19
2023-04-09T22:54:32.362Z,97736.69
2023-04-09T22:57:22.342Z,97734.72
2023-04-09T23:00:11.165Z,97735.09
2023-04-09T23:02:59.790Z,97734.50
2023-04-09T23:05:48.429Z,97734.06
2023-04-09T23:08:37.806Z,97736.28
2023-04-09T23:11:27.282Z,97726.91
2023-04-09T23:14:17.089Z,97732.91
2023-04-09T23:17:05.641Z,97739.41
2023-04-09T23:19:54.000Z,97735.44
2023-04-09T23:22:42.400Z,97740.47
2023-04-09T23:25:30.849Z,97728.06
2023-04-09T23:28:19.217Z,97722.66
2023-04-09T23:31:09.118Z,97713.72
2023-04-09T23:33:57.463Z,97721.44
2023-04-09T23:36:45.936Z,97718.69
2023-04-09T23:39:34.252Z,97718.38
2023-04-09T23:42:22.632Z,97719.50
2023-04-09T23:45:12.063Z,97712.09
2023-04-09T23:48:02.411Z,97711.06
2023-04-09T23:50:50.782Z,97714.19
2023-04-09T23:53:39.136Z,97717.28
2023-04-09T23:56:27.457Z,97713.38
2023-04-09T23:59:15.870Z,97709.63
